El Portal, Florida
Current Conditions -  °F | °C
As of 4:53 PM on Sunday 25 Jan 2015 (Local Time) from KMIA Reporting Station
Broken Clouds Broken Clouds  
Wind Chill: 66°   Ceiling: 25000
Heat Index: 66°   Visibility: 10mi
Dew Point: 41°   Wind: 5mph
Humidity: 40%   Direction: 310°NW
Pressure: 30"   Gusts: NA
Location:  25.852°N, 80.2071°W
Report Text: KMIA 252153Z 31004KT 10SM FEW030 BKN250 19/05 A3000 RMK AO2 SLP157 FU FEW030 T01890050
Loading
Personal Weather Stations






























Interactive Weather Map New forecast layout! Learn more

10-Day Weather Forecast

Advertisements
Track Severe Weather on mobile